createdAt,value
2022-08-12T00:00:43.960Z,70.12
2022-08-12T00:03:30.485Z,70.79
2022-08-12T00:06:17.739Z,71.06
2022-08-12T00:09:04.513Z,71.68
2022-08-12T00:11:51.984Z,72.01
2022-08-12T00:14:39.000Z,72.28
2022-08-12T00:17:26.736Z,73.61
2022-08-12T00:20:14.769Z,73.01
2022-08-12T00:23:02.878Z,72.23
2022-08-12T00:26:21.235Z,72.44
2022-08-12T00:29:07.696Z,72.47
2022-08-12T00:31:56.847Z,72.97
2022-08-12T00:34:43.556Z,72.82
2022-08-12T00:37:32.692Z,73.02
2022-08-12T00:40:20.013Z,73.36
2022-08-12T00:42:51.898Z,73.36
2022-08-12T00:45:20.392Z,73.89
2022-08-12T00:47:51.531Z,74.18
2022-08-12T00:50:22.387Z,74.80
2022-08-12T00:52:52.569Z,74.14
2022-08-12T00:55:21.435Z,74.25
2022-08-12T00:57:50.826Z,74.64
2022-08-12T01:00:21.672Z,74.53
2022-08-12T01:02:58.135Z,74.85
2022-08-12T01:05:53.290Z,75.37
2022-08-12T01:08:39.740Z,75.24
2022-08-12T01:11:29.062Z,75.46
2022-08-12T01:14:00.061Z,75.68
2022-08-12T01:16:28.456Z,75.92
2022-08-12T01:18:57.856Z,75.98
2022-08-12T01:21:40.704Z,75.19
2022-08-12T01:24:30.210Z,74.92
2022-08-12T01:27:01.353Z,75.10
2022-08-12T01:29:32.995Z,74.83
2022-08-12T01:32:08.320Z,74.25
2022-08-12T01:34:39.660Z,74.67
2022-08-12T01:37:09.828Z,75.10
2022-08-12T01:40:35.837Z,75.33
2022-08-12T01:42:47.271Z,75.61
2022-08-12T01:45:17.711Z,75.82
2022-08-12T01:48:03.817Z,75.94
2022-08-12T01:50:37.377Z,75.94
2022-08-12T01:53:10.472Z,75.57
2022-08-12T01:55:44.588Z,76.23
2022-08-12T01:59:01.058Z,76.51
2022-08-12T02:01:39.518Z,76.97
2022-08-12T02:04:44.995Z,77.86
2022-08-12T02:08:08.400Z,77.70
2022-08-12T02:10:57.859Z,77.21
2022-08-12T02:14:02.182Z,76.62
2022-08-12T02:16:39.292Z,76.16
2022-08-12T02:19:23.432Z,74.63
2022-08-12T02:22:38.279Z,77.31
2022-08-12T02:25:13.424Z,72.92
2022-08-12T02:27:52.212Z,73.21
2022-08-12T02:30:23.087Z,70.65
2022-08-12T02:32:53.587Z,71.87
2022-08-12T02:35:27.344Z,74.49
2022-08-12T02:37:59.331Z,76.10
2022-08-12T02:40:28.925Z,75.58
2022-08-12T02:43:12.562Z,76.74
2022-08-12T02:46:04.526Z,76.10
2022-08-12T02:49:00.759Z,76.52
2022-08-12T02:51:34.388Z,77.17
2022-08-12T02:54:06.182Z,77.30
2022-08-12T02:56:50.571Z,77.62
2022-08-12T02:59:24.545Z,77.57
2022-08-12T03:02:03.605Z,77.99
2022-08-12T03:04:47.693Z,79.16
2022-08-12T03:07:59.573Z,79.52
2022-08-12T03:10:36.650Z,80.09
2022-08-12T03:13:08.277Z,78.99
2022-08-12T03:15:37.632Z,77.77
2022-08-12T03:18:24.963Z,79.48
2022-08-12T03:21:00.261Z,80.48
2022-08-12T03:23:31.316Z,80.64
2022-08-12T03:26:02.415Z,81.06
2022-08-12T03:28:54.007Z,81.80
2022-08-12T03:31:29.784Z,80.83
2022-08-12T03:34:03.302Z,78.08
2022-08-12T03:36:35.022Z,78.90
2022-08-12T03:39:18.968Z,77.62
2022-08-12T03:42:09.543Z,77.43
2022-08-12T03:45:11.685Z,77.95
2022-08-12T03:48:18.663Z,77.41
2022-08-12T03:51:07.708Z,77.45
2022-08-12T03:53:55.212Z,81.01
2022-08-12T03:56:42.014Z,79.36
2022-08-12T03:59:28.856Z,78.66
2022-08-12T04:02:00.026Z,79.57
2022-08-12T04:04:35.546Z,80.63
2022-08-12T04:07:09.199Z,80.95
2022-08-12T04:09:41.569Z,81.66
2022-08-12T04:12:32.928Z,82.16
2022-08-12T04:15:01.968Z,80.50
2022-08-12T04:17:30.855Z,80.20
2022-08-12T04:19:59.669Z,81.91
2022-08-12T04:22:30.342Z,81.46
2022-08-12T04:25:02.860Z,81.45
2022-08-12T04:27:32.473Z,81.79
2022-08-12T04:30:16.787Z,81.58
2022-08-12T04:32:52.186Z,81.30
2022-08-12T04:35:22.098Z,79.39
2022-08-12T04:37:57.948Z,79.36
2022-08-12T04:40:30.210Z,79.81
2022-08-12T04:43:01.107Z,78.67
2022-08-12T04:45:31.148Z,78.43
2022-08-12T04:47:59.219Z,79.83
2022-08-12T04:50:35.990Z,77.98
2022-08-12T04:53:08.349Z,77.73
2022-08-12T04:55:39.255Z,76.86
2022-08-12T04:58:09.907Z,74.44
2022-08-12T05:00:38.683Z,72.81
2022-08-12T05:03:10.306Z,71.75
2022-08-12T05:05:40.821Z,70.30
2022-08-12T05:08:17.395Z,69.92
2022-08-12T05:10:47.484Z,68.85
2022-08-12T05:13:33.588Z,68.22
2022-08-12T05:16:05.219Z,67.75
2022-08-12T05:18:39.461Z,66.01
2022-08-12T05:21:09.342Z,64.89
2022-08-12T05:23:38.798Z,64.34
2022-08-12T05:26:07.535Z,63.74
2022-08-12T05:28:36.296Z,63.80
2022-08-12T05:31:04.963Z,64.11
2022-08-12T05:33:40.787Z,61.37
2022-08-12T05:36:12.569Z,61.17
2022-08-12T05:38:58.679Z,61.98
2022-08-12T05:41:35.239Z,61.08
2022-08-12T05:44:13.417Z,59.04
2022-08-12T05:46:41.825Z,59.99
2022-08-12T05:49:12.809Z,59.10
2022-08-12T05:51:41.861Z,59.43
2022-08-12T05:54:11.340Z,58.99
2022-08-12T05:56:41.302Z,58.17
2022-08-12T05:59:11.453Z,57.55
2022-08-12T06:02:12.521Z,57.51
2022-08-12T06:04:30.252Z,57.00
2022-08-12T06:06:58.295Z,56.43
2022-08-12T06:09:28.602Z,56.15
2022-08-12T06:12:04.465Z,55.25
2022-08-12T06:14:37.712Z,55.34
2022-08-12T06:17:09.292Z,54.07
2022-08-12T06:20:22.848Z,54.71
2022-08-12T06:22:26.772Z,53.36
2022-08-12T06:24:54.704Z,53.47
2022-08-12T06:27:22.664Z,53.16
2022-08-12T06:30:10.301Z,51.71
2022-08-12T06:33:04.235Z,53.38
2022-08-12T06:35:48.672Z,52.50
2022-08-12T06:38:21.372Z,52.24
2022-08-12T06:41:12.584Z,51.87
2022-08-12T06:44:04.585Z,51.58
2022-08-12T06:46:30.231Z,49.07
2022-08-12T06:48:59.523Z,48.38
2022-08-12T06:51:29.558Z,48.27
2022-08-12T06:53:58.613Z,49.28
2022-08-12T06:56:45.880Z,49.12
2022-08-12T06:59:15.603Z,49.85
2022-08-12T07:01:51.230Z,50.58
2022-08-12T07:04:38.452Z,49.38
2022-08-12T07:07:09.016Z,47.57
2022-08-12T07:10:06.983Z,48.10
2022-08-12T07:12:27.838Z,49.08
2022-08-12T07:15:01.783Z,48.49
2022-08-12T07:17:35.935Z,47.48
2022-08-12T07:20:09.945Z,48.07
2022-08-12T07:22:41.741Z,46.51
2022-08-12T07:25:29.509Z,47.54
2022-08-12T07:28:18.475Z,47.23
2022-08-12T07:30:49.150Z,46.88
2022-08-12T07:33:19.100Z,46.01
2022-08-12T07:35:48.118Z,46.49
2022-08-12T07:38:29.570Z,46.62
2022-08-12T07:41:06.679Z,46.25
2022-08-12T07:43:40.011Z,45.37
2022-08-12T07:46:15.030Z,45.53
2022-08-12T07:48:52.976Z,46.43
2022-08-12T07:51:25.314Z,46.08
2022-08-12T07:54:01.122Z,45.97
2022-08-12T07:56:31.692Z,46.54
2022-08-12T07:59:01.049Z,45.70
2022-08-12T08:01:29.474Z,45.31
2022-08-12T08:04:19.085Z,45.48
2022-08-12T08:06:48.294Z,45.20
2022-08-12T08:09:18.453Z,45.50
2022-08-12T08:12:05.177Z,44.80
2022-08-12T08:14:33.153Z,45.70
2022-08-12T08:17:06.830Z,45.19
2022-08-12T08:20:02.820Z,45.75
2022-08-12T08:22:35.629Z,45.14
2022-08-12T08:25:34.484Z,46.16
2022-08-12T08:28:04.521Z,46.57
2022-08-12T08:30:37.707Z,47.20
2022-08-12T08:33:22.682Z,46.90
2022-08-12T08:35:54.577Z,46.81
2022-08-12T08:38:32.011Z,46.28
2022-08-12T08:42:15.965Z,46.78
2022-08-12T08:44:11.302Z,47.06
2022-08-12T08:46:40.703Z,46.19
2022-08-12T08:49:08.942Z,46.87
2022-08-12T08:51:38.962Z,46.04
2022-08-12T08:54:12.478Z,46.69
2022-08-12T08:56:49.875Z,45.83
2022-08-12T08:59:19.538Z,47.14
2022-08-12T09:01:48.825Z,47.24
2022-08-12T09:05:11.903Z,45.95
2022-08-12T09:07:17.235Z,44.76
2022-08-12T09:10:02.016Z,44.14
2022-08-12T09:12:54.420Z,44.59
2022-08-12T09:15:41.646Z,45.05
2022-08-12T09:18:11.792Z,43.55
2022-08-12T09:24:00.123Z,42.45
2022-08-12T09:26:19.110Z,40.58
2022-08-12T09:32:04.382Z,39.73
2022-08-12T09:34:25.314Z,39.76
2022-08-12T09:37:02.922Z,40.61
2022-08-12T09:40:06.323Z,39.95
2022-08-12T09:43:15.927Z,38.64
2022-08-12T09:46:06.823Z,36.14
2022-08-12T09:48:36.027Z,37.14
2022-08-12T09:51:16.919Z,36.82
2022-08-12T09:54:08.471Z,37.00
2022-08-12T09:56:58.276Z,37.27
2022-08-12T10:00:13.154Z,33.29
2022-08-12T10:02:49.769Z,33.96
2022-08-12T10:05:13.562Z,33.92
2022-08-12T10:07:45.512Z,32.91
2022-08-12T10:10:22.878Z,33.49
2022-08-12T10:13:33.881Z,33.85
2022-08-12T10:16:05.917Z,34.47
2022-08-12T10:18:51.817Z,33.41
2022-08-12T10:21:37.815Z,32.63
2022-08-12T10:24:15.652Z,33.35
2022-08-12T10:27:07.694Z,33.05
2022-08-12T10:30:37.082Z,33.51
2022-08-12T10:32:43.831Z,31.94
2022-08-12T10:35:20.211Z,31.52
2022-08-12T10:38:37.835Z,31.29
2022-08-12T10:40:55.892Z,31.42
2022-08-12T10:43:55.611Z,31.56
2022-08-12T10:46:31.532Z,31.37
2022-08-12T10:49:07.033Z,31.99
2022-08-12T10:52:04.853Z,31.35
2022-08-12T10:54:37.662Z,31.85
2022-08-12T10:57:06.577Z,31.44
2022-08-12T11:00:01.442Z,31.75
2022-08-12T11:04:27.679Z,31.53
2022-08-12T11:07:10.114Z,32.35
2022-08-12T11:08:36.510Z,32.70
2022-08-12T11:10:53.452Z,32.32
2022-08-12T11:13:21.309Z,32.73
2022-08-12T11:16:22.244Z,32.99
2022-08-12T11:18:55.309Z,32.80
2022-08-12T11:21:31.081Z,32.59
2022-08-12T11:24:30.083Z,32.62
2022-08-12T11:27:07.278Z,32.32
2022-08-12T11:30:06.008Z,32.59
2022-08-12T11:32:28.607Z,32.74
2022-08-12T11:34:59.412Z,32.33
2022-08-12T11:37:27.542Z,31.92
2022-08-12T11:42:46.026Z,32.19
2022-08-12T11:45:16.620Z,32.21
2022-08-12T11:47:45.625Z,31.80
2022-08-12T11:50:19.546Z,30.64
2022-08-12T11:52:56.361Z,30.97
2022-08-12T11:55:27.554Z,31.39
2022-08-12T11:58:14.585Z,31.28
2022-08-12T12:03:44.012Z,31.28
2022-08-12T12:06:17.257Z,31.26
2022-08-12T12:08:50.895Z,30.79
2022-08-12T12:11:20.377Z,30.58
2022-08-12T12:14:08.298Z,30.11
2022-08-12T12:16:40.012Z,30.10
2022-08-12T12:19:10.571Z,29.74
2022-08-12T12:21:48.208Z,29.72
2022-08-12T12:24:22.465Z,29.64
2022-08-12T12:26:59.790Z,29.54
2022-08-12T12:30:19.121Z,30.22
2022-08-12T12:32:29.037Z,30.22
2022-08-12T12:35:13.561Z,30.66
2022-08-12T12:38:05.447Z,28.57
2022-08-12T12:40:44.998Z,28.78
2022-08-12T12:43:14.811Z,29.20
2022-08-12T12:45:46.474Z,28.84
2022-08-12T12:48:20.507Z,29.30
2022-08-12T12:51:13.553Z,29.52
2022-08-12T12:54:07.453Z,30.40
2022-08-12T12:56:43.075Z,30.14
2022-08-12T12:59:55.512Z,29.49
2022-08-12T13:02:08.657Z,29.53
2022-08-12T13:04:41.292Z,29.53
2022-08-12T13:07:13.255Z,29.49
2022-08-12T13:09:46.664Z,29.96
2022-08-12T13:12:15.132Z,29.95
2022-08-12T13:14:43.994Z,29.46
2022-08-12T13:17:24.124Z,29.47
2022-08-12T13:20:33.584Z,29.22
2022-08-12T13:23:02.902Z,29.34
2022-08-12T13:25:51.013Z,30.02
2022-08-12T13:28:24.420Z,29.93
2022-08-12T13:30:59.386Z,30.17
2022-08-12T13:33:28.748Z,29.69
2022-08-12T13:36:06.983Z,29.74
2022-08-12T13:38:44.055Z,29.90
2022-08-12T13:41:40.394Z,29.06
2022-08-12T13:44:11.706Z,29.16
2022-08-12T13:46:42.118Z,29.49
2022-08-12T13:49:53.357Z,29.43
2022-08-12T13:52:02.014Z,29.40
2022-08-12T13:54:32.890Z,29.19
2022-08-12T13:57:01.444Z,29.27
2022-08-12T13:59:30.945Z,29.20
2022-08-12T14:02:18.328Z,29.32
2022-08-12T14:04:56.227Z,28.88
2022-08-12T14:07:25.992Z,29.08
2022-08-12T14:10:16.076Z,29.03
2022-08-12T14:12:54.850Z,28.95
2022-08-12T14:15:35.066Z,29.38
2022-08-12T14:18:15.350Z,30.02
2022-08-12T14:20:52.158Z,29.93
2022-08-12T14:24:04.879Z,30.04
2022-08-12T14:26:17.055Z,29.69
2022-08-12T14:29:01.081Z,29.48
2022-08-12T14:31:32.511Z,30.17
2022-08-12T14:34:05.024Z,29.71
2022-08-12T14:36:34.060Z,30.01
2022-08-12T14:39:04.820Z,29.94
2022-08-12T14:41:37.060Z,29.93
2022-08-12T14:44:58.944Z,29.91
2022-08-12T14:47:10.119Z,29.90
2022-08-12T14:50:33.968Z,30.02
2022-08-12T14:53:13.362Z,29.65
2022-08-12T14:58:10.045Z,29.60
2022-08-12T15:00:58.137Z,29.78
2022-08-12T15:03:52.117Z,30.05
2022-08-12T15:06:43.738Z,29.59
2022-08-12T15:09:11.840Z,29.96
2022-08-12T15:11:48.816Z,29.72
2022-08-12T15:14:30.267Z,29.82
2022-08-12T15:17:00.158Z,30.14
2022-08-12T15:20:28.275Z,30.17
2022-08-12T15:22:35.656Z,30.17
2022-08-12T15:25:08.958Z,30.38
2022-08-12T15:28:03.876Z,30.53
2022-08-12T15:30:32.293Z,30.01
2022-08-12T15:33:14.863Z,30.29
2022-08-12T15:35:52.052Z,29.95
2022-08-12T15:38:24.896Z,29.98
2022-08-12T15:40:54.728Z,30.15
2022-08-12T15:43:35.644Z,29.76
2022-08-12T15:46:15.883Z,30.30
2022-08-12T15:48:46.707Z,30.40
2022-08-12T15:51:58.133Z,30.12
2022-08-12T15:54:34.500Z,30.14
2022-08-12T15:57:07.957Z,30.32
2022-08-12T15:59:51.248Z,30.38
2022-08-12T16:02:29.602Z,30.13
2022-08-12T16:05:00.480Z,30.11
2022-08-12T16:07:31.297Z,30.50
2022-08-12T16:10:12.332Z,30.65
2022-08-12T16:12:56.483Z,30.45
2022-08-12T16:15:29.396Z,30.02
2022-08-12T16:18:15.230Z,30.57
2022-08-12T16:20:48.749Z,30.60
2022-08-12T16:23:50.946Z,30.73
2022-08-12T16:26:14.870Z,30.34
2022-08-12T16:28:47.341Z,30.81
2022-08-12T16:31:22.639Z,30.38
2022-08-12T16:33:58.695Z,30.51
2022-08-12T16:36:35.226Z,30.34
2022-08-12T16:39:05.060Z,30.29
2022-08-12T16:41:38.066Z,30.33
2022-08-12T16:44:10.188Z,30.33
2022-08-12T16:46:57.459Z,30.38
2022-08-12T16:49:26.369Z,30.62
2022-08-12T16:52:12.656Z,30.77
2022-08-12T16:54:42.586Z,30.53
2022-08-12T16:57:14.082Z,30.60
2022-08-12T16:59:53.443Z,30.37
2022-08-12T17:02:33.578Z,30.15
2022-08-12T17:05:17.733Z,30.53
2022-08-12T17:08:18.399Z,30.48
2022-08-12T17:13:54.774Z,30.46
2022-08-12T17:16:30.485Z,30.37
2022-08-12T17:19:12.749Z,30.29
2022-08-12T17:22:02.771Z,30.31
2022-08-12T17:24:54.522Z,30.22
2022-08-12T17:27:26.235Z,30.16
2022-08-12T17:30:01.943Z,30.23
2022-08-12T17:32:35.382Z,30.21
2022-08-12T17:35:37.068Z,30.34
2022-08-12T17:38:11.826Z,30.18
2022-08-12T17:40:52.164Z,29.88
2022-08-12T17:43:56.752Z,30.04
2022-08-12T17:46:23.868Z,30.20
2022-08-12T17:49:00.684Z,30.17
2022-08-12T17:51:49.855Z,30.09
2022-08-12T17:54:19.839Z,29.55
2022-08-12T17:56:51.650Z,30.20
2022-08-12T17:59:47.979Z,30.14
2022-08-12T18:02:13.649Z,30.43
2022-08-12T18:05:05.091Z,30.67
2022-08-12T18:07:32.439Z,30.92
2022-08-12T18:10:10.399Z,31.05
2022-08-12T18:12:42.816Z,31.25
2022-08-12T18:16:03.516Z,31.49
2022-08-12T18:18:16.710Z,31.71
2022-08-12T18:20:46.687Z,31.75
2022-08-12T18:23:14.928Z,31.79
2022-08-12T18:26:14.460Z,31.95
2022-08-12T18:28:48.397Z,32.03
2022-08-12T18:31:26.151Z,32.47
2022-08-12T18:34:15.550Z,32.58
2022-08-12T18:36:51.686Z,32.98
2022-08-12T18:39:22.179Z,33.65
2022-08-12T18:41:52.676Z,33.66
2022-08-12T18:44:25.552Z,33.81
2022-08-12T18:46:58.103Z,34.06
2022-08-12T18:49:56.071Z,34.48
2022-08-12T18:52:33.895Z,34.56
2022-08-12T18:55:08.063Z,34.79
2022-08-12T18:58:06.049Z,34.80
2022-08-12T19:00:34.838Z,35.19
2022-08-12T19:03:23.447Z,35.54
2022-08-12T19:05:58.445Z,35.80
2022-08-12T19:08:30.077Z,35.98
2022-08-12T19:11:19.152Z,36.27
2022-08-12T19:14:08.008Z,36.43
2022-08-12T19:16:40.607Z,36.70
2022-08-12T19:19:11.262Z,36.94
2022-08-12T19:21:44.079Z,37.32
2022-08-12T19:24:44.512Z,37.69
2022-08-12T19:27:20.646Z,38.36
2022-08-12T19:30:06.733Z,38.55
2022-08-12T19:32:37.872Z,39.22
2022-08-12T19:38:06.276Z,40.44
2022-08-12T19:40:40.000Z,41.36
2022-08-12T19:43:19.970Z,41.62
2022-08-12T19:45:56.797Z,41.53
2022-08-12T19:48:33.031Z,41.84
2022-08-12T19:51:22.454Z,42.34
2022-08-12T19:53:57.278Z,42.35
2022-08-12T19:56:32.325Z,42.67
2022-08-12T19:59:20.998Z,42.56
2022-08-12T20:02:01.369Z,42.88
2022-08-12T20:04:42.024Z,42.87
2022-08-12T20:07:23.792Z,42.60
2022-08-12T20:09:55.622Z,42.63
2022-08-12T20:12:32.466Z,42.28
2022-08-12T20:15:17.568Z,42.24
2022-08-12T20:17:51.055Z,42.10
2022-08-12T20:20:28.252Z,42.20
2022-08-12T20:22:57.441Z,42.17
2022-08-12T20:25:28.455Z,42.52
2022-08-12T20:28:15.287Z,42.35
2022-08-12T20:30:59.291Z,42.54
2022-08-12T20:33:32.272Z,43.02
2022-08-12T20:36:06.953Z,42.14
2022-08-12T20:38:54.226Z,42.11
2022-08-12T20:41:24.005Z,42.90
2022-08-12T20:43:59.831Z,42.38
2022-08-12T20:46:32.945Z,42.71
2022-08-12T20:49:17.085Z,42.81
2022-08-12T20:51:55.291Z,43.19
2022-08-12T20:54:32.677Z,43.70
2022-08-12T20:57:09.687Z,43.98
2022-08-12T20:59:49.419Z,44.18
2022-08-12T21:02:24.735Z,43.93
2022-08-12T21:05:20.221Z,44.15
2022-08-12T21:07:52.365Z,44.26
2022-08-12T21:10:26.464Z,44.22
2022-08-12T21:12:55.692Z,44.63
2022-08-12T21:15:30.801Z,44.72
2022-08-12T21:18:28.925Z,45.55
2022-08-12T21:21:00.696Z,45.53
2022-08-12T21:23:36.993Z,45.65
2022-08-12T21:26:16.162Z,45.88
2022-08-12T21:28:58.342Z,46.50
2022-08-12T21:32:39.734Z,46.69
2022-08-12T21:34:26.359Z,47.83
2022-08-12T21:37:12.888Z,49.16
2022-08-12T21:39:56.369Z,49.91
2022-08-12T21:42:26.946Z,50.36
2022-08-12T21:45:48.078Z,50.51
2022-08-12T21:47:53.289Z,50.67
2022-08-12T21:50:35.575Z,51.08
2022-08-12T21:53:10.470Z,51.42
2022-08-12T21:55:39.816Z,51.66
2022-08-12T21:58:16.752Z,51.90
2022-08-12T22:00:45.437Z,52.36
2022-08-12T22:04:02.881Z,52.74
2022-08-12T22:06:30.942Z,53.51
2022-08-12T22:09:16.128Z,54.06
2022-08-12T22:11:56.052Z,54.33
2022-08-12T22:14:29.051Z,54.78
2022-08-12T22:17:00.351Z,54.74
2022-08-12T22:19:33.788Z,54.74
2022-08-12T22:22:05.374Z,55.30
2022-08-12T22:24:36.870Z,55.35
2022-08-12T22:27:32.684Z,55.52
2022-08-12T22:30:19.767Z,55.56
2022-08-12T22:32:50.660Z,55.33
2022-08-12T22:35:47.699Z,55.55
2022-08-12T22:38:26.751Z,55.89
2022-08-12T22:41:01.284Z,56.18
2022-08-12T22:43:58.624Z,56.55
2022-08-12T22:46:41.002Z,56.91
2022-08-12T22:49:22.261Z,56.73
2022-08-12T22:52:00.876Z,57.10
2022-08-12T22:54:36.946Z,57.52
2022-08-12T22:57:12.055Z,57.78
2022-08-12T22:59:55.090Z,58.24
2022-08-12T23:02:28.716Z,58.51
2022-08-12T23:04:59.658Z,58.89
2022-08-12T23:07:36.338Z,59.05
2022-08-12T23:10:18.926Z,59.42
2022-08-12T23:13:08.695Z,61.07
2022-08-12T23:15:40.181Z,58.68
2022-08-12T23:18:16.845Z,57.57
2022-08-12T23:20:45.557Z,56.80
2022-08-12T23:23:20.882Z,54.69
2022-08-12T23:25:55.642Z,55.39
2022-08-12T23:28:42.519Z,55.12
2022-08-12T23:31:10.912Z,54.48
2022-08-12T23:34:02.395Z,54.31
2022-08-12T23:36:39.187Z,55.10
2022-08-12T23:40:06.598Z,55.70
2022-08-12T23:42:16.961Z,56.95
2022-08-12T23:44:48.604Z,57.85
2022-08-12T23:47:21.701Z,58.75
2022-08-12T23:49:56.998Z,59.17
2022-08-12T23:52:33.843Z,59.09
2022-08-12T23:55:23.475Z,59.07
2022-08-12T23:58:21.046Z,59.24
